Andersonville, Indiana
Current Conditions -  °F | °C
As of 11:15 AM on Thursday 27 Nov 2014 (Local Time) from KI67 Reporting Station
Overcast Overcast  
Wind Chill: -4°   Ceiling: 6000
Heat Index:   Visibility: 10mi
Dew Point: -6°   Wind: 8mph
Humidity: 64%   Direction: 310°NW
Pressure: 30.3"   Gusts: 16mph
Location:  39.4846°N, 85.1967°W
Report Text: KI67 271615Z AUTO 31007G14KT 10SM SCT027 SCT032 OVC060 00/M06 A3030 RMK AO1
Loading
Personal Weather Stations






























Interactive Weather Map New forecast layout! Learn more

10-Day Weather Forecast

Advertisements
Track Severe Weather on mobile